Time;durP1;ratioP1;P1;durP2;ratioP2;P2;SDS_P1;SDS_P2;PMS_P1;PMS_P2;Temp;Humidity;BMP_temperature;BMP_pressure;BME280_temperature;BME280_humidity;BME280_pressure;Samples;Min_cycle;Max_cycle;Signal;HPM_P1;HPM_P2
2023/12/26 00:00:31;;;;;;;21.67;12.90;;;;;;;8.08;69.41;97052.81;4948551;28;20720;-75
2023/12/26 00:03:06;;;;;;;19.43;10.00;;;;;;;7.75;70.32;97048.03;4949158;28;20291;-73
2023/12/26 00:05:33;;;;;;;16.63;9.60;;;;;;;7.85;70.91;97050.22;4931696;28;20628;-75
2023/12/26 00:08:04;;;;;;;14.93;8.70;;;;;;;7.65;71.56;97041.47;4947227;28;20203;-75
2023/12/26 00:10:32;;;;;;;15.53;8.50;;;;;;;7.56;71.73;97001.44;4948526;28;20708;-75
2023/12/26 00:13:03;;;;;;;13.70;7.93;;;;;;;7.95;70.87;97043.88;4947064;28;20748;-75
2023/12/26 00:15:31;;;;;;;15.93;8.27;;;;;;;7.69;70.82;96976.91;4948729;28;20566;-76
2023/12/26 00:17:59;;;;;;;13.63;8.13;;;;;;;7.60;70.20;96951.47;4948232;28;20197;-77
2023/12/26 00:20:27;;;;;;;13.13;7.50;;;;;;;8.19;70.30;97050.72;4948633;28;20224;-76
2023/12/26 00:22:54;;;;;;;19.10;9.10;;;;;;;8.27;69.96;97032.41;4948465;28;20662;-75
2023/12/26 00:25:22;;;;;;;16.10;8.57;;;;;;;8.37;69.19;97051.81;4948538;28;20626;-75
2023/12/26 00:27:49;;;;;;;18.57;8.97;;;;;;;8.52;69.12;97063.28;4948520;28;20200;-75
2023/12/26 00:30:17;;;;;;;14.43;8.77;;;;;;;8.48;69.53;97056.56;4946784;28;20236;-75
2023/12/26 00:32:45;;;;;;;14.07;7.80;;;;;;;8.51;69.52;97066.78;4947116;28;20295;-74
2023/12/26 00:35:14;;;;;;;12.20;7.30;;;;;;;8.37;69.66;97059.53;4946814;28;20207;-76
2023/12/26 00:37:41;;;;;;;12.80;7.33;;;;;;;8.23;69.91;97056.59;4948645;28;20207;-74
2023/12/26 00:40:09;;;;;;;13.90;7.10;;;;;;;8.22;69.82;97071.22;4947805;28;20225;-74
2023/12/26 00:42:37;;;;;;;14.57;7.70;;;;;;;8.03;70.15;97070.22;4946770;28;20275;-75
2023/12/26 00:45:05;;;;;;;10.63;6.60;;;;;;;8.07;69.74;97076.09;4946679;28;20208;-74
2023/12/26 00:47:36;;;;;;;14.03;7.23;;;;;;;8.11;69.75;97081.09;4947952;28;20769;-74
2023/12/26 00:50:04;;;;;;;10.33;6.20;;;;;;;8.07;69.23;97089.00;4948231;28;20274;-75
2023/12/26 00:52:32;;;;;;;10.50;6.33;;;;;;;8.33;68.58;97093.25;4946328;28;20569;-76
2023/12/26 00:54:59;;;;;;;14.33;6.90;;;;;;;8.40;68.37;97089.56;4948279;28;20260;-76
2023/12/26 00:57:26;;;;;;;12.67;6.43;;;;;;;8.61;67.56;97099.09;4946924;28;20213;-75
2023/12/26 00:59:54;;;;;;;11.13;6.50;;;;;;;8.57;67.41;97103.50;4946766;28;20284;-75
2023/12/26 01:02:22;;;;;;;12.57;6.97;;;;;;;8.58;68.20;97109.53;4947693;28;20200;-76
2023/12/26 01:04:51;;;;;;;17.93;8.47;;;;;;;8.52;67.99;97102.00;4950043;28;20201;-74
2023/12/26 01:07:18;;;;;;;14.00;8.07;;;;;;;8.62;67.97;97109.38;4948485;28;20197;-77
2023/12/26 01:09:45;;;;;;;15.37;8.37;;;;;;;8.52;68.08;97112.34;4947886;28;20193;-77
2023/12/26 01:12:13;;;;;;;13.10;7.60;;;;;;;8.64;67.06;97104.13;4950544;28;20197;-75
2023/12/26 01:14:41;;;;;;;12.13;6.97;;;;;;;8.31;67.55;97095.03;4946769;28;20193;-77
2023/12/26 01:17:09;;;;;;;13.00;7.50;;;;;;;8.26;67.84;97092.66;4945753;28;20190;-76
2023/12/26 01:19:36;;;;;;;13.97;7.00;;;;;;;8.19;68.80;97096.28;4947152;28;20217;-74
2023/12/26 01:22:04;;;;;;;12.37;6.53;;;;;;;7.94;70.25;97098.03;4947492;28;20197;-77
2023/12/26 01:24:33;;;;;;;10.60;6.57;;;;;;;7.93;70.69;97098.94;4946163;28;20692;-76
2023/12/26 01:27:01;;;;;;;10.77;6.33;;;;;;;8.11;70.06;97104.31;4947315;28;20197;-76
2023/12/26 01:29:29;;;;;;;12.77;7.10;;;;;;;8.27;69.58;97094.31;4947780;28;20280;-76
2023/12/26 01:31:56;;;;;;;10.77;6.70;;;;;;;8.39;68.16;97100.78;4945642;28;20689;-77
2023/12/26 01:34:23;;;;;;;15.73;8.00;;;;;;;8.22;68.69;97103.94;4950059;28;20207;-76
2023/12/26 01:36:51;;;;;;;15.37;8.27;;;;;;;7.93;69.63;97104.94;4966205;28;20212;-75
2023/12/26 01:39:18;;;;;;;19.37;11.03;;;;;;;7.82;68.85;97106.19;4965561;28;20259;-75
2023/12/26 01:41:45;;;;;;;19.50;10.67;;;;;;;7.59;70.35;97096.66;4966564;28;20193;-78
2023/12/26 01:44:15;;;;;;;20.00;9.97;;;;;;;7.54;70.51;97095.97;4933731;28;20215;-78
2023/12/26 01:46:42;;;;;;;17.87;9.77;;;;;;;7.29;70.57;97090.75;4982000;28;20209;-79
2023/12/26 01:49:10;;;;;;;14.23;8.67;;;;;;;7.55;70.77;97109.69;4966916;28;20565;-78
2023/12/26 01:51:39;;;;;;;15.30;10.00;;;;;;;7.34;70.88;97057.13;4966232;28;20200;-77
2023/12/26 01:54:07;;;;;;;17.80;9.77;;;;;;;7.48;70.34;97092.75;4966944;28;20243;-77
2023/12/26 01:56:35;;;;;;;19.03;9.50;;;;;;;7.44;70.28;97094.56;4982269;28;20188;-76
2023/12/26 01:59:03;;;;;;;14.03;8.30;;;;;;;7.51;70.89;97098.66;4965973;28;20215;-75
2023/12/26 02:01:32;;;;;;;22.60;10.80;;;;;;;7.59;70.89;97100.97;4967453;28;20232;-77
2023/12/26 02:04:01;;;;;;;14.83;8.60;;;;;;;7.79;70.53;97106.31;4968306;28;20302;-75
2023/12/26 02:06:31;;;;;;;19.10;10.43;;;;;;;7.68;69.64;97082.63;4967242;28;20703;-77
2023/12/26 02:08:58;;;;;;;19.50;9.70;;;;;;;7.60;69.60;97105.25;4966457;28;20560;-77
2023/12/26 02:11:26;;;;;;;14.87;8.93;;;;;;;7.47;69.83;97094.50;4966269;28;20189;-75
2023/12/26 02:13:55;;;;;;;15.27;9.33;;;;;;;7.46;69.65;97092.78;4980808;28;20263;-77
2023/12/26 02:16:25;;;;;;;13.20;8.33;;;;;;;7.47;69.99;97107.38;4966905;28;20260;-77
2023/12/26 02:18:55;;;;;;;12.93;7.90;;;;;;;7.46;70.42;97108.25;4969473;28;20187;-76
2023/12/26 02:21:22;;;;;;;10.10;6.40;;;;;;;7.51;69.92;97103.81;4969996;28;20239;-75
2023/12/26 02:23:55;;;;;;;11.40;6.90;;;;;;;7.46;70.16;97100.53;4969799;28;20224;-76
2023/12/26 02:26:27;;;;;;;14.07;7.30;;;;;;;7.64;69.07;97107.66;4968385;28;20241;-75
2023/12/26 02:28:56;;;;;;;15.00;6.97;;;;;;;7.50;69.69;97099.53;4969435;28;20193;-77
2023/12/26 02:31:25;;;;;;;10.53;6.40;;;;;;;7.35;70.65;97100.03;4969721;28;20199;-74
2023/12/26 02:33:52;;;;;;;10.90;7.20;;;;;;;7.32;70.95;97116.44;4969772;28;20195;-75
2023/12/26 02:36:21;;;;;;;11.80;7.27;;;;;;;7.31;70.44;97121.63;4969388;28;20208;-76
2023/12/26 02:38:49;;;;;;;9.33;6.47;;;;;;;7.26;70.81;97116.63;4968317;28;20206;-74
2023/12/26 02:41:16;;;;;;;11.73;7.10;;;;;;;7.20;71.65;97123.69;4969213;28;20224;-76
2023/12/26 02:43:44;;;;;;;9.57;6.87;;;;;;;7.10;71.53;97060.50;4984196;28;20216;-74
2023/12/26 02:46:12;;;;;;;12.77;7.70;;;;;;;7.42;69.81;97083.47;4967710;28;20655;-75
2023/12/26 02:48:39;;;;;;;9.77;6.87;;;;;;;7.73;69.10;97122.81;4984160;28;20688;-75
2023/12/26 02:51:08;;;;;;;13.30;7.50;;;;;;;7.62;70.03;97124.06;4969486;28;20207;-75
2023/12/26 02:53:35;;;;;;;11.83;6.80;;;;;;;7.52;69.86;97123.53;4967565;28;20570;-75
2023/12/26 02:56:03;;;;;;;13.17;7.10;;;;;;;7.23;70.57;97113.31;4967922;28;20192;-74
2023/12/26 02:58:30;;;;;;;11.37;7.33;;;;;;;7.33;70.77;97122.44;4968709;28;20214;-76
2023/12/26 03:00:57;;;;;;;11.23;7.33;;;;;;;7.39;69.44;97122.22;4968643;28;20358;-75
2023/12/26 03:03:25;;;;;;;12.07;7.20;;;;;;;7.32;69.49;97102.69;4968784;28;20220;-74
2023/12/26 03:05:54;;;;;;;10.60;6.20;;;;;;;7.38;70.15;97115.38;4983499;28;20196;-75
2023/12/26 03:08:23;;;;;;;12.47;6.90;;;;;;;7.45;70.93;97122.03;4968873;28;20216;-74
2023/12/26 03:10:52;;;;;;;15.77;8.07;;;;;;;7.34;71.08;97121.53;4968433;28;20664;-75
2023/12/26 03:13:19;;;;;;;17.70;8.37;;;;;;;7.26;69.93;97105.47;4967733;28;20195;-75
2023/12/26 03:15:46;;;;;;;13.83;7.37;;;;;;;7.31;70.31;97124.22;4968613;28;20259;-75
2023/12/26 03:18:13;;;;;;;12.33;6.80;;;;;;;7.21;69.83;97125.41;4968854;28;20208;-74
2023/12/26 03:20:40;;;;;;;16.67;6.60;;;;;;;7.08;70.84;97101.75;4967041;28;20236;-74
2023/12/26 03:23:08;;;;;;;11.40;6.47;;;;;;;7.21;70.49;97094.50;4968487;28;20220;-76
2023/12/26 03:25:36;;;;;;;10.93;6.10;;;;;;;7.01;70.79;97130.28;4967246;28;20204;-75
2023/12/26 03:28:04;;;;;;;12.13;6.20;;;;;;;6.91;70.58;97110.88;4967548;28;20216;-76
2023/12/26 03:30:32;;;;;;;11.33;5.67;;;;;;;6.84;72.06;97132.56;4968787;28;20257;-75
2023/12/26 03:32:59;;;;;;;10.73;6.13;;;;;;;6.78;73.03;97130.16;4968151;28;20289;-74
2023/12/26 03:35:27;;;;;;;10.97;6.90;;;;;;;6.89;72.18;97134.09;4983251;28;20270;-75
2023/12/26 03:37:55;;;;;;;10.43;6.60;;;;;;;6.83;72.22;97141.16;4968169;28;20279;-75
2023/12/26 03:40:23;;;;;;;11.60;6.07;;;;;;;6.83;71.67;97144.56;4950777;28;20345;-76
2023/12/26 03:42:51;;;;;;;13.37;6.60;;;;;;;6.79;71.94;97135.25;4968266;28;20200;-74
2023/12/26 03:45:19;;;;;;;11.27;6.43;;;;;;;6.77;72.00;97139.59;4966775;28;20700;-75
2023/12/26 03:47:46;;;;;;;14.13;6.80;;;;;;;6.85;71.89;97141.94;4968706;28;20295;-75
2023/12/26 03:50:13;;;;;;;11.13;5.93;;;;;;;6.75;71.35;97148.25;4966625;28;20641;-75
2023/12/26 03:52:41;;;;;;;9.80;5.90;;;;;;;6.72;70.92;97140.63;4983014;28;20188;-74
2023/12/26 03:55:08;;;;;;;11.33;6.43;;;;;;;6.70;71.17;97150.13;4966638;28;20533;-76
2023/12/26 03:57:36;;;;;;;13.80;7.17;;;;;;;6.45;72.31;97155.94;4982550;28;20323;-75
2023/12/26 04:00:04;;;;;;;9.37;6.30;;;;;;;6.59;72.76;97155.56;4966410;28;20209;-75
2023/12/26 04:02:40;;;;;;;14.30;6.50;;;;;;;6.54;72.06;97154.84;4967526;28;20205;-75
2023/12/26 04:05:10;;;;;;;32.80;16.07;;;;;;;6.71;73.00;97154.38;4951201;28;20198;-75
2023/12/26 04:07:39;;;;;;;14.63;7.77;;;;;;;6.62;72.32;97150.31;4950494;28;20192;-75
2023/12/26 04:10:07;;;;;;;13.83;8.33;;;;;;;6.82;72.62;97157.50;4966413;28;20198;-76
2023/12/26 04:12:36;;;;;;;14.57;8.30;;;;;;;6.84;71.98;97153.16;4966336;28;20195;-76
2023/12/26 04:15:04;;;;;;;12.83;7.90;;;;;;;6.92;71.92;97166.63;4966177;28;20214;-75
2023/12/26 04:17:32;;;;;;;16.57;6.93;;;;;;;6.95;71.50;97164.78;4950605;28;20285;-75
2023/12/26 04:20:00;;;;;;;17.50;7.87;;;;;;;6.89;70.93;97149.53;4967247;28;20189;-77
2023/12/26 04:22:29;;;;;;;15.73;7.87;;;;;;;6.44;71.88;97113.13;4982426;28;20313;-75
2023/12/26 04:24:56;;;;;;;14.47;7.33;;;;;;;6.80;71.89;97159.28;4967537;28;20192;-74
2023/12/26 04:27:24;;;;;;;11.87;7.10;;;;;;;6.65;73.55;97172.56;4966023;28;20435;-74
2023/12/26 04:29:53;;;;;;;14.03;6.60;;;;;;;6.29;74.19;97161.53;4982131;28;20286;-74
2023/12/26 04:32:21;;;;;;;13.90;6.60;;;;;;;6.40;73.55;97177.53;4965647;28;20302;-74
2023/12/26 04:34:48;;;;;;;9.87;5.73;;;;;;;6.45;73.18;97176.53;4981974;28;20629;-75
2023/12/26 04:37:15;;;;;;;11.30;5.90;;;;;;;6.38;74.59;97177.59;4966863;28;20586;-74
2023/12/26 04:39:43;;;;;;;11.80;5.93;;;;;;;6.42;74.40;97170.63;4982420;28;20199;-75
2023/12/26 04:42:11;;;;;;;10.20;5.80;;;;;;;6.49;73.82;97172.97;4965076;28;20237;-75
2023/12/26 04:44:40;;;;;;;14.20;6.90;;;;;;;6.37;74.05;97178.47;4982086;28;20189;-75
2023/12/26 04:47:08;;;;;;;9.13;5.43;;;;;;;6.39;74.67;97166.41;4981838;28;20199;-76
2023/12/26 04:49:36;;;;;;;11.63;6.30;;;;;;;6.28;73.92;97177.88;4966925;28;20193;-75
2023/12/26 04:52:05;;;;;;;8.07;5.40;;;;;;;6.42;74.26;97194.63;4981739;28;20395;-75
2023/12/26 04:54:32;;;;;;;10.63;5.83;;;;;;;6.43;73.59;97188.59;4965234;28;20208;-76
2023/12/26 04:57:00;;;;;;;13.27;5.27;;;;;;;6.57;73.96;97191.63;4967243;28;20631;-76
2023/12/26 04:59:27;;;;;;;6.40;4.43;;;;;;;6.63;73.04;97182.91;4964832;28;20269;-77
2023/12/26 05:01:55;;;;;;;9.47;5.10;;;;;;;6.79;72.10;97181.59;4981534;28;20229;-74
2023/12/26 05:04:22;;;;;;;10.37;5.77;;;;;;;6.74;73.22;97180.03;4981517;28;20188;-76
2023/12/26 05:06:51;;;;;;;11.70;6.10;;;;;;;6.74;73.09;97188.56;4966609;28;20555;-77
2023/12/26 05:09:18;;;;;;;9.40;5.33;;;;;;;6.76;72.60;97175.69;4965355;28;20194;-77
2023/12/26 05:11:46;;;;;;;11.77;5.80;;;;;;;7.00;72.15;97180.97;4966364;28;20253;-76
2023/12/26 05:14:14;;;;;;;9.37;4.93;;;;;;;7.13;71.82;97184.84;4947286;28;20200;-76
2023/12/26 05:16:42;;;;;;;6.93;4.00;;;;;;;7.32;71.11;97193.72;4947232;28;20204;-76
2023/12/26 05:19:12;;;;;;;12.20;7.90;;;;;;;7.23;70.71;97193.16;4946046;28;20624;-75
2023/12/26 05:21:39;;;;;;;12.17;7.07;;;;;;;7.09;70.98;97190.16;4945725;28;20238;-75
2023/12/26 05:24:07;;;;;;;9.53;5.63;;;;;;;6.95;71.05;97193.13;4946140;28;20204;-75
2023/12/26 05:26:42;;;;;;;10.63;6.33;;;;;;;6.87;71.51;97195.06;4914728;28;20200;-76
2023/12/26 05:29:10;;;;;;;14.63;7.93;;;;;;;6.73;70.82;97196.34;4946037;28;20190;-76
2023/12/26 05:31:38;;;;;;;18.67;10.70;;;;;;;6.73;72.20;97207.50;4962330;28;20246;-75
2023/12/26 05:34:10;;;;;;;17.70;11.10;;;;;;;6.53;72.33;97187.44;4946106;28;20896;-77
2023/12/26 05:36:38;;;;;;;22.43;10.80;;;;;;;6.79;72.13;97211.63;4930378;28;20260;-77
2023/12/26 05:39:06;;;;;;;20.20;10.77;;;;;;;6.85;72.26;97206.28;4929793;28;20252;-76
2023/12/26 05:41:34;;;;;;;17.73;9.57;;;;;;;6.84;71.26;97217.50;4930240;28;20232;-74
2023/12/26 05:44:02;;;;;;;19.07;10.93;;;;;;;6.82;71.29;97212.34;4946167;28;20188;-76
2023/12/26 05:46:31;;;;;;;19.57;11.10;;;;;;;6.48;71.75;97219.34;4945796;28;20205;-76
2023/12/26 05:49:00;;;;;;;17.13;9.57;;;;;;;6.24;72.07;97204.56;4929890;29;20287;-76
2023/12/26 05:51:28;;;;;;;18.23;10.23;;;;;;;6.36;72.33;97217.94;4947726;28;20242;-76
2023/12/26 05:53:57;;;;;;;19.13;9.03;;;;;;;6.16;72.45;97215.03;4985607;28;20447;-74
2023/12/26 05:56:25;;;;;;;19.03;8.90;;;;;;;6.32;72.76;97215.50;4983189;28;20201;-77
2023/12/26 05:58:52;;;;;;;23.87;9.87;;;;;;;6.12;71.93;97212.59;4949652;28;20243;-75
2023/12/26 06:01:19;;;;;;;20.53;9.57;;;;;;;6.15;71.81;97223.63;4954154;28;20239;-76
2023/12/26 06:03:47;;;;;;;20.13;11.10;;;;;;;6.20;71.02;97214.06;4940331;28;20943;-76
2023/12/26 06:06:14;;;;;;;19.80;9.53;;;;;;;6.17;71.46;97227.00;4940459;28;20303;-74
2023/12/26 06:08:43;;;;;;;19.77;10.13;;;;;;;6.33;70.43;97237.72;4935873;28;20754;-76
2023/12/26 06:11:10;;;;;;;16.10;9.60;;;;;;;6.20;71.11;97250.06;4949932;28;20764;-77
2023/12/26 06:13:40;;;;;;;19.23;10.77;;;;;;;6.17;71.16;97236.44;4949544;28;20241;-77
2023/12/26 06:16:09;;;;;;;21.83;11.47;;;;;;;6.31;71.11;97245.50;4950521;28;20277;-75
2023/12/26 06:18:36;;;;;;;19.30;10.97;;;;;;;6.26;71.09;97247.34;4965344;28;20364;-76
2023/12/26 06:21:04;;;;;;;18.33;10.57;;;;;;;6.20;70.77;97247.47;4948721;28;20226;-74
2023/12/26 06:23:31;;;;;;;13.73;8.53;;;;;;;6.43;70.96;97252.88;4949521;28;20283;-75
2023/12/26 06:25:59;;;;;;;15.57;9.13;;;;;;;6.37;70.39;97257.34;4950334;28;20743;-75
2023/12/26 06:28:34;;;;;;;24.03;12.73;;;;;;;6.37;70.60;97245.34;4950691;28;20285;-75
2023/12/26 06:31:01;;;;;;;22.27;12.27;;;;;;;6.24;71.15;97248.28;4949096;28;20196;-75
2023/12/26 06:33:29;;;;;;;21.83;13.47;;;;;;;6.46;70.39;97259.69;4948983;28;20600;-75
2023/12/26 06:35:57;;;;;;;24.17;13.40;;;;;;;6.51;71.35;97253.53;4948976;28;20210;-75
2023/12/26 06:38:26;;;;;;;29.97;16.27;;;;;;;6.62;70.45;97260.13;4948732;28;20714;-74
2023/12/26 06:40:58;;;;;;;30.57;17.80;;;;;;;6.91;70.37;97275.63;4950560;28;20235;-76
2023/12/26 06:43:28;;;;;;;27.67;16.93;;;;;;;6.95;69.47;97277.22;4949996;28;20216;-76
2023/12/26 06:45:55;;;;;;;38.93;22.90;;;;;;;7.06;69.55;97270.91;4933043;29;20601;-76
2023/12/26 06:48:26;;;;;;;48.80;25.10;;;;;;;6.86;69.46;97280.06;4965566;28;20684;-76
2023/12/26 06:50:55;;;;;;;43.30;22.87;;;;;;;6.91;69.72;97278.19;4949544;28;20209;-78
2023/12/26 06:53:25;;;;;;;42.13;23.60;;;;;;;6.99;69.04;97265.94;4948754;28;20702;-78
2023/12/26 06:55:53;;;;;;;38.33;22.73;;;;;;;7.17;68.68;97280.91;4949690;28;20249;-78
2023/12/26 06:58:20;;;;;;;40.77;22.17;;;;;;;7.13;68.58;97207.19;4948693;28;20296;-76
2023/12/26 07:00:49;;;;;;;30.37;16.43;;;;;;;7.21;67.70;97279.91;4947769;28;20233;-77
2023/12/26 07:03:17;;;;;;;22.87;14.00;;;;;;;7.00;70.22;97278.78;4930938;29;20283;-75
2023/12/26 07:05:46;;;;;;;27.43;15.63;;;;;;;7.16;69.55;97284.34;4947928;28;20259;-77
2023/12/26 07:08:14;;;;;;;24.03;15.70;;;;;;;7.19;69.21;97292.00;4947454;28;20220;-76
2023/12/26 07:10:43;;;;;;;25.63;14.83;;;;;;;7.39;69.32;97295.69;4949415;28;20224;-77
2023/12/26 07:13:10;;;;;;;30.23;18.80;;;;;;;7.62;68.84;97296.75;4948837;28;20227;-79
2023/12/26 07:15:38;;;;;;;30.83;18.60;;;;;;;7.79;67.74;97297.91;4948126;28;20649;-76
2023/12/26 07:18:08;;;;;;;24.83;15.33;;;;;;;8.03;67.52;97301.47;4948898;28;20197;-76
2023/12/26 07:20:36;;;;;;;28.60;15.73;;;;;;;8.12;66.61;97280.53;4932418;28;20285;-75
2023/12/26 07:23:07;;;;;;;20.67;11.87;;;;;;;8.25;66.93;97292.16;4949052;28;20231;-76
2023/12/26 07:25:34;;;;;;;19.00;10.90;;;;;;;8.44;66.62;97300.16;4949217;28;20210;-77
2023/12/26 07:28:01;;;;;;;19.30;11.70;;;;;;;8.51;65.18;97268.09;4948337;28;20598;-76
2023/12/26 07:30:30;;;;;;;20.77;11.40;;;;;;;8.28;65.87;97258.53;4950099;28;20197;-75
2023/12/26 07:32:59;;;;;;;18.90;11.13;;;;;;;8.43;65.68;97295.91;4949723;28;20666;-75
2023/12/26 07:35:29;;;;;;;35.17;15.50;;;;;;;8.46;66.40;97303.53;4947021;28;20394;-75
2023/12/26 07:37:59;;;;;;;55.07;23.97;;;;;;;8.47;66.30;97287.97;4948936;28;20201;-74
2023/12/26 07:40:30;;;;;;;74.93;28.67;;;;;;;8.62;65.90;97291.78;4948691;28;20285;-74
2023/12/26 07:43:03;;;;;;;92.37;36.23;;;;;;;8.52;66.61;97264.59;4946501;28;20345;-74
2023/12/26 07:45:30;;;;;;;50.97;25.40;;;;;;;8.71;67.49;97283.72;4949022;28;20268;-75
2023/12/26 07:48:00;;;;;;;39.00;20.27;;;;;;;8.81;67.04;97279.94;4948668;28;20256;-74
2023/12/26 07:50:31;;;;;;;30.10;16.37;;;;;;;8.89;67.80;97283.09;4947332;28;20757;-76
2023/12/26 07:53:01;;;;;;;26.00;15.43;;;;;;;9.07;67.64;97285.00;4963545;28;20283;-76
2023/12/26 07:55:32;;;;;;;25.90;14.47;;;;;;;9.18;67.37;97276.88;4965750;28;20217;-76
2023/12/26 07:58:00;;;;;;;32.07;15.67;;;;;;;9.30;67.50;97282.44;4967643;28;20594;-76
2023/12/26 08:00:27;;;;;;;30.90;17.97;;;;;;;9.31;67.63;97278.97;4967332;28;20232;-76
2023/12/26 08:02:55;;;;;;;23.97;12.87;;;;;;;9.37;67.25;97271.00;4951028;28;20331;-76
2023/12/26 08:05:23;;;;;;;21.03;12.43;;;;;;;9.48;67.01;97281.75;4967418;28;20192;-76
2023/12/26 08:07:53;;;;;;;21.90;11.97;;;;;;;9.58;67.02;97283.09;4966933;28;20197;-76
2023/12/26 08:10:24;;;;;;;24.00;13.37;;;;;;;9.74;66.44;97291.97;4948751;28;20704;-76
2023/12/26 08:13:00;;;;;;;29.23;15.07;;;;;;;9.70;66.48;97280.06;4947789;28;20344;-78
2023/12/26 08:15:32;;;;;;;37.53;15.83;;;;;;;9.72;66.60;97287.75;4948559;28;20209;-78
2023/12/26 08:18:02;;;;;;;37.57;19.00;;;;;;;9.82;66.50;97286.50;4948208;28;20197;-75
2023/12/26 08:20:33;;;;;;;35.80;17.07;;;;;;;9.95;66.55;97286.84;4948121;28;20268;-76
2023/12/26 08:23:04;;;;;;;36.40;18.43;;;;;;;10.06;66.04;97284.66;4948187;28;20272;-76
2023/12/26 08:25:40;;;;;;;35.93;16.97;;;;;;;9.75;65.54;97233.31;4946210;28;20677;-77
2023/12/26 08:28:12;;;;;;;34.37;16.77;;;;;;;9.84;65.32;97232.97;4944877;28;21077;-78
2023/12/26 08:30:42;;;;;;;36.30;19.10;;;;;;;10.36;64.75;97276.56;4946485;28;20677;-76
2023/12/26 08:33:15;;;;;;;35.60;18.10;;;;;;;10.37;64.38;97277.38;4932176;29;20225;-75
2023/12/26 08:35:43;;;;;;;30.40;16.97;;;;;;;10.72;63.50;97279.34;4944802;28;20772;-75
2023/12/26 08:38:10;;;;;;;30.80;16.07;;;;;;;10.64;63.13;97274.50;4948953;28;21078;-75
2023/12/26 08:44:05;;;;;;;31.63;16.00;;;;;;;10.98;62.43;97298.97;4947454;28;20193;-76
2023/12/26 08:49:45;;;;;;;33.40;16.17;;;;;;;11.18;61.22;97273.03;4944912;28;20777;-76
2023/12/26 08:52:13;;;;;;;27.83;14.53;;;;;;;11.16;60.66;97270.50;4946225;28;20734;-75
2023/12/26 08:55:07;;;;;;;28.17;13.93;;;;;;;11.27;60.34;97255.28;4948996;28;20191;-75
2023/12/26 08:57:41;;;;;;;26.27;13.27;;;;;;;11.29;60.02;97257.84;4948403;28;20311;-76
2023/12/26 09:00:14;;;;;;;22.10;12.13;;;;;;;11.51;59.84;97268.06;4947267;28;20237;-78
2023/12/26 09:02:48;;;;;;;22.73;11.33;;;;;;;11.10;58.74;97174.88;4949182;28;20776;-76
2023/12/26 09:05:30;;;;;;;17.73;9.87;;;;;;;11.72;58.81;97261.94;4952982;28;20232;-77
2023/12/26 09:08:01;;;;;;;20.33;10.93;;;;;;;11.72;58.58;97261.94;4943789;28;20192;-75
2023/12/26 09:10:41;;;;;;;17.70;11.33;;;;;;;11.75;58.96;97256.56;4944106;28;20222;-77
2023/12/26 09:13:09;;;;;;;21.60;12.70;;;;;;;11.87;58.99;97258.63;4946677;28;20753;-76
2023/12/26 09:15:36;;;;;;;24.93;14.17;;;;;;;11.75;58.96;97265.22;4946529;28;20254;-76
2023/12/26 09:18:06;;;;;;;24.70;12.00;;;;;;;11.83;58.93;97262.28;4946988;28;20206;-74
2023/12/26 09:20:34;;;;;;;23.63;11.73;;;;;;;11.74;58.75;97226.38;4945795;28;20223;-73
2023/12/26 09:23:02;;;;;;;19.67;12.43;;;;;;;11.83;57.85;97233.72;4947292;28;20679;-75
2023/12/26 09:25:30;;;;;;;19.20;11.90;;;;;;;11.92;57.80;97251.44;4947820;28;20565;-83
2023/12/26 09:28:00;;;;;;;21.63;11.87;;;;;;;11.56;58.82;97222.84;4947370;28;20192;-77
2023/12/26 09:30:29;;;;;;;22.67;11.90;;;;;;;12.01;57.37;97244.03;4947056;28;20198;-77
2023/12/26 09:32:56;;;;;;;14.30;9.10;;;;;;;12.12;55.99;97204.59;4946793;28;20200;-75
2023/12/26 09:35:30;;;;;;;13.33;8.83;;;;;;;12.33;55.46;97228.66;4961606;28;20282;-75
2023/12/26 09:38:02;;;;;;;14.83;8.43;;;;;;;12.27;55.27;97219.41;4947139;28;20190;-76
2023/12/26 09:40:32;;;;;;;16.80;9.17;;;;;;;12.42;55.64;97229.06;4944978;28;20202;-78
2023/12/26 09:43:02;;;;;;;15.60;9.10;;;;;;;12.70;55.16;97229.34;4946944;28;20651;-74
2023/12/26 09:45:37;;;;;;;18.00;9.13;;;;;;;12.72;55.36;97224.06;4947186;28;20207;-77
2023/12/26 09:48:15;;;;;;;13.70;8.70;;;;;;;12.68;55.38;97215.59;4946384;28;20195;-78
2023/12/26 09:50:43;;;;;;;16.77;8.17;;;;;;;12.78;55.52;97196.00;4946775;28;20204;-75
2023/12/26 09:53:15;;;;;;;10.87;6.90;;;;;;;12.93;54.69;97205.59;4945708;28;20230;-76
2023/12/26 09:55:44;;;;;;;13.20;6.90;;;;;;;13.16;54.44;97209.63;4946088;28;20207;-74
2023/12/26 09:58:12;;;;;;;15.30;7.93;;;;;;;12.71;54.93;97158.28;4947528;28;20254;-74
2023/12/26 10:00:40;;;;;;;14.30;8.63;;;;;;;13.15;55.35;97204.50;4945313;28;20319;-78
2023/12/26 10:03:08;;;;;;;11.87;7.00;;;;;;;13.10;53.96;97190.91;4945379;28;20272;-74
2023/12/26 10:05:36;;;;;;;12.23;7.07;;;;;;;12.87;54.85;97129.69;4946516;28;20244;-79
2023/12/26 10:08:03;;;;;;;16.87;8.37;;;;;;;13.32;54.59;97191.41;4961965;28;20639;-79
2023/12/26 10:10:32;;;;;;;13.23;7.40;;;;;;;13.45;53.92;97197.66;4946060;28;20200;-74
2023/12/26 10:13:00;;;;;;;13.10;7.40;;;;;;;13.39;54.13;97167.63;4946608;28;20203;-73
2023/12/26 10:15:27;;;;;;;13.60;7.50;;;;;;;13.57;53.88;97170.94;4946732;28;20219;-75
2023/12/26 10:17:55;;;;;;;12.60;7.07;;;;;;;13.68;54.46;97184.22;4944405;28;21117;-76
2023/12/26 10:20:23;;;;;;;15.53;7.80;;;;;;;13.96;53.99;97189.53;4944987;28;20268;-75
2023/12/26 10:22:50;;;;;;;12.57;7.10;;;;;;;13.80;54.50;97181.78;4943470;28;20221;-76
2023/12/26 10:25:19;;;;;;;10.80;6.67;;;;;;;13.98;53.70;97184.25;4946631;28;20610;-77
2023/12/26 10:27:58;;;;;;;10.37;6.23;;;;;;;13.87;54.41;97177.03;4946575;28;20220;-77
2023/12/26 10:30:26;;;;;;;11.27;7.00;;;;;;;13.42;53.53;97093.75;4946764;28;20196;-77
2023/12/26 10:33:02;;;;;;;16.20;10.13;;;;;;;13.74;53.82;97148.28;4946886;28;20299;-76
2023/12/26 10:35:33;;;;;;;13.20;7.60;;;;;;;13.76;54.04;97140.38;4946117;28;20287;-74
2023/12/26 10:38:01;;;;;;;16.60;6.93;;;;;;;13.73;53.90;97148.34;4932508;28;20201;-73
2023/12/26 10:40:30;;;;;;;14.07;8.20;;;;;;;13.69;53.50;97121.66;4964803;28;20222;-75
2023/12/26 10:43:01;;;;;;;12.03;7.17;;;;;;;13.95;54.09;97138.38;4949439;28;20230;-73
2023/12/26 10:45:33;;;;;;;12.57;7.53;;;;;;;14.02;53.70;97131.06;4964043;28;20316;-73
2023/12/26 10:48:04;;;;;;;12.50;6.67;;;;;;;14.07;52.51;97129.03;4964257;28;20217;-75
2023/12/26 10:50:33;;;;;;;9.33;7.00;;;;;;;14.20;52.32;97127.41;4948161;28;20204;-75
2023/12/26 10:53:10;;;;;;;12.90;6.53;;;;;;;14.26;52.09;97142.66;4949739;28;20193;-72
2023/12/26 10:55:39;;;;;;;13.77;6.97;;;;;;;14.34;52.11;97132.66;4949813;28;20215;-75
2023/12/26 10:58:17;;;;;;;8.97;5.93;;;;;;;14.51;51.77;97141.16;4949438;28;20224;-75
2023/12/26 11:24:53;;;;;;;11.77;5.73;;;;;;;14.65;52.54;97107.25;4949658;28;20241;-73
2023/12/26 11:38:26;;;;;;;8.73;5.40;;;;;;;14.80;51.79;97089.00;4948049;28;20664;-73
2023/12/26 11:44:55;;;;;;;10.20;5.83;;;;;;;14.95;50.77;97082.84;4949989;28;20201;-75
2023/12/26 11:51:24;;;;;;;11.27;5.63;;;;;;;14.94;50.49;97068.97;4950803;28;20193;-73
2023/12/26 12:08:25;;;;;;;7.87;5.50;;;;;;;14.87;51.28;97059.88;4928613;29;20356;-80
2023/12/26 12:21:42;;;;;;;10.40;6.03;;;;;;;15.28;51.50;97049.41;4933680;29;20206;-78
2023/12/26 12:28:29;;;;;;;12.30;7.07;;;;;;;15.58;50.83;97050.06;4935646;29;20183;-76
2023/12/26 12:34:19;;;;;;;10.70;6.17;;;;;;;15.58;51.92;97044.84;4949902;28;20205;-74
2023/12/26 12:47:02;;;;;;;11.13;5.60;;;;;;;15.50;51.58;97033.25;4947701;28;20855;-73
2023/12/26 12:53:11;;;;;;;13.57;7.23;;;;;;;15.54;51.92;97035.53;4948255;28;20208;-74
2023/12/26 13:06:41;;;;;;;8.57;5.30;;;;;;;15.54;50.35;97032.94;4947411;28;20250;-73
2023/12/26 13:16:11;;;;;;;12.20;6.83;;;;;;;15.66;48.71;97028.69;4947662;28;20675;-73
2023/12/26 13:26:26;;;;;;;9.73;5.70;;;;;;;15.88;45.73;97035.00;4945363;28;20205;-79
2023/12/26 13:33:32;;;;;;;9.77;5.57;;;;;;;15.82;45.87;97034.56;4947214;28;20189;-74
2023/12/26 13:40:38;;;;;;;11.83;6.33;;;;;;;16.17;45.34;97033.88;4947154;28;20208;-74
2023/12/26 13:49:35;;;;;;;12.50;6.33;;;;;;;15.83;49.02;97047.53;4952562;28;20261;-76
2023/12/26 13:52:02;;;;;;;8.77;5.83;;;;;;;15.94;49.39;97047.66;4954775;28;20666;-76
2023/12/26 13:54:30;;;;;;;11.27;6.50;;;;;;;15.75;50.70;97036.75;4950939;28;20282;-77